Time;durP1;ratioP1;P1;durP2;ratioP2;P2;SDS_P1;SDS_P2;PMS_P1;PMS_P2;Temp;Humidity;BMP_temperature;BMP_pressure;BME280_temperature;BME280_humidity;BME280_pressure;Samples;Min_cycle;Max_cycle;Signal;HPM_P1;HPM_P2
2021/10/25 00:00:07;;;;;;;;;32.00;29.00;;;;;20.12;46.82;101146.56;5040134;28;45263;-71
2021/10/25 00:02:33;;;;;;;;;29.50;27.75;;;;;20.07;47.41;101145.78;5055482;28;45339;-71
2021/10/25 00:04:58;;;;;;;;;38.50;33.25;;;;;20.07;47.02;101144.03;5039927;28;45513;-71
2021/10/25 00:07:24;;;;;;;;;31.25;27.75;;;;;19.99;46.96;101132.75;5038264;28;60957;-70
2021/10/25 00:09:49;;;;;;;;;25.50;23.50;;;;;20.01;47.15;101139.75;5038755;28;45590;-72
2021/10/25 00:12:14;;;;;;;;;32.75;30.50;;;;;20.00;47.43;101135.34;5055480;28;45317;-71
2021/10/25 00:14:40;;;;;;;;;30.25;29.00;;;;;20.04;47.55;101138.78;5071454;28;65458;-71
2021/10/25 00:17:05;;;;;;;;;29.25;27.75;;;;;20.11;47.12;101135.09;5072360;28;45442;-71
2021/10/25 00:19:31;;;;;;;;;34.00;29.50;;;;;20.10;46.95;101136.00;5071725;28;52299;-71
2021/10/25 00:21:57;;;;;;;;;33.50;29.50;;;;;20.09;46.72;101128.97;5038547;28;45355;-72
2021/10/25 00:24:22;;;;;;;;;30.25;29.25;;;;;20.05;47.67;101128.16;5055187;28;45265;-71
2021/10/25 00:26:47;;;;;;;;;28.00;26.00;;;;;20.06;47.63;101126.38;5039155;28;62756;-71
2021/10/25 00:29:13;;;;;;;;;32.25;29.50;;;;;20.09;47.36;101121.03;5054725;28;58599;-72
2021/10/25 00:31:38;;;;;;;;;29.25;26.50;;;;;20.09;46.75;101117.50;5055360;28;45418;-70
2021/10/25 00:34:04;;;;;;;;;30.25;27.00;;;;;20.08;47.35;101123.72;5071781;28;45777;-70
2021/10/25 00:36:31;;;;;;;;;30.25;28.25;;;;;20.08;47.24;101116.63;5071754;28;45336;-71
2021/10/25 00:38:56;;;;;;;;;27.50;25.50;;;;;20.09;46.28;101113.06;5034945;28;45319;-71
2021/10/25 00:41:21;;;;;;;;;31.50;28.25;;;;;20.07;46.72;101111.34;5045658;28;58403;-71
2021/10/25 00:43:47;;;;;;;;;29.75;29.00;;;;;20.03;46.78;101106.13;5039477;28;56929;-71
2021/10/25 00:46:12;;;;;;;;;28.25;26.25;;;;;19.97;47.02;101100.97;5075388;28;52451;-70
2021/10/25 00:48:38;;;;;;;;;29.75;24.75;;;;;19.98;46.66;101109.78;5043169;28;45396;-71
2021/10/25 00:51:04;;;;;;;;;25.25;23.75;;;;;19.96;46.65;101109.81;5075368;28;45520;-72
2021/10/25 00:53:30;;;;;;;;;26.50;25.00;;;;;19.96;46.63;101107.19;5071787;28;47196;-70
2021/10/25 00:55:56;;;;;;;;;31.25;28.25;;;;;19.96;47.05;101107.19;5041751;28;45285;-71
2021/10/25 00:58:22;;;;;;;;;26.50;23.75;;;;;19.95;46.64;101096.63;5075562;28;45251;-71
2021/10/25 01:00:47;;;;;;;;;28.00;25.00;;;;;19.94;46.49;101105.47;5075355;28;45492;-71
2021/10/25 01:03:13;;;;;;;;;26.50;24.75;;;;;19.91;46.46;101110.88;5074917;28;57122;-71
2021/10/25 01:05:38;;;;;;;;;33.00;27.25;;;;;19.87;46.44;101115.34;5041452;28;45210;-72
2021/10/25 01:08:04;;;;;;;;;26.25;25.75;;;;;19.85;46.49;101103.91;5075549;28;45533;-71
2021/10/25 01:10:29;;;;;;;;;25.50;23.00;;;;;19.81;47.19;101110.22;5041334;28;46064;-72
2021/10/25 01:12:55;;;;;;;;;25.00;24.00;;;;;19.84;47.20;101114.56;5041386;28;46200;-72
2021/10/25 01:15:20;;;;;;;;;26.25;23.75;;;;;19.86;46.48;101116.25;5058195;28;45274;-72
2021/10/25 01:17:51;;;;;;;;;26.50;25.00;;;;;19.86;46.40;101110.09;5058016;28;45248;-72
2021/10/25 01:20:17;;;;;;;;;25.25;23.50;;;;;19.81;46.73;101107.56;5057202;28;45312;-71
2021/10/25 01:22:42;;;;;;;;;30.50;24.25;;;;;19.81;46.69;101111.97;5057555;28;58164;-71
2021/10/25 01:25:08;;;;;;;;;27.25;24.50;;;;;19.80;46.99;101120.81;5074241;28;64389;-70
2021/10/25 01:27:33;;;;;;;;;30.75;23.75;;;;;19.79;47.10;101119.94;5058118;28;45427;-71
2021/10/25 01:29:58;;;;;;;;;18.75;16.00;;;;;19.81;46.90;101122.56;5041859;28;59634;-71
2021/10/25 01:32:24;;;;;;;;;22.75;21.00;;;;;19.80;46.69;101120.81;5042308;28;45606;-71
2021/10/25 01:34:49;;;;;;;;;25.00;23.00;;;;;19.83;47.50;101120.75;5042088;28;45296;-71
2021/10/25 01:37:15;;;;;;;;;25.50;23.00;;;;;19.83;47.14;101120.75;5074957;28;45212;-71
2021/10/25 01:39:40;;;;;;;;;22.75;22.00;;;;;19.82;46.96;101117.25;5042138;28;49571;-71
2021/10/25 01:42:06;;;;;;;;;25.25;23.25;;;;;19.80;46.70;101112.88;5057481;28;50487;-71
2021/10/25 01:44:31;;;;;;;;;30.50;26.75;;;;;19.77;47.29;101109.38;5057764;28;45253;-71
2021/10/25 01:46:57;;;;;;;;;25.75;22.25;;;;;19.81;47.60;101109.31;5074631;28;45247;-70
2021/10/25 01:49:23;;;;;;;;;27.00;23.25;;;;;19.83;47.27;101111.03;5074439;28;45571;-71
2021/10/25 01:51:48;;;;;;;;;27.00;21.25;;;;;19.83;47.14;101108.38;5057392;28;47329;-71
2021/10/25 01:54:13;;;;;;;;;26.25;21.25;;;;;19.82;47.13;101108.44;5070427;28;52570;-71
2021/10/25 01:56:39;;;;;;;;;24.00;21.00;;;;;19.84;47.67;101109.25;5070264;28;49665;-71
2021/10/25 01:59:08;;;;;;;;;23.75;23.75;;;;;19.86;47.12;101107.44;5057797;28;45411;-70
2021/10/25 02:01:33;;;;;;;;;26.00;26.00;;;;;19.85;47.21;101106.56;5057105;28;45204;-71
2021/10/25 02:03:59;;;;;;;;;27.00;24.25;;;;;19.83;46.80;101105.75;5040625;28;46018;-71
2021/10/25 02:06:24;;;;;;;;;27.75;23.75;;;;;19.85;47.35;101100.41;5041969;28;45222;-70
2021/10/25 02:08:50;;;;;;;;;24.00;21.25;;;;;19.85;46.91;101100.41;5057225;28;52080;-70
2021/10/25 02:11:15;;;;;;;;;26.50;24.00;;;;;19.89;47.21;101100.28;5056524;28;64181;-70
2021/10/25 02:13:41;;;;;;;;;24.00;21.25;;;;;19.89;47.40;101100.28;5041743;28;45283;-70
2021/10/25 02:16:07;;;;;;;;;22.00;20.75;;;;;19.91;46.79;101089.66;5041782;28;45153;-71
2021/10/25 02:18:33;;;;;;;;;20.50;18.75;;;;;19.91;47.17;101081.72;5041602;28;45522;-70
2021/10/25 02:20:58;;;;;;;;;24.25;21.50;;;;;19.91;46.98;101079.06;5069560;28;64159;-71
2021/10/25 02:23:24;;;;;;;;;24.25;21.00;;;;;19.89;46.75;101088.81;5064202;28;45340;-70
2021/10/25 02:25:49;;;;;;;;;25.00;21.50;;;;;19.88;47.14;101084.44;5074070;28;45338;-70
2021/10/25 02:28:14;;;;;;;;;19.00;19.00;;;;;19.86;47.19;101075.66;5074120;28;45319;-71
2021/10/25 02:30:40;;;;;;;;;17.00;16.75;;;;;19.88;46.92;101084.44;5056316;28;64955;-70
2021/10/25 02:33:05;;;;;;;;;24.00;21.25;;;;;19.88;46.80;101090.59;5041460;28;45608;-71
2021/10/25 02:35:31;;;;;;;;;22.50;22.00;;;;;19.87;47.05;101087.97;5040019;28;45319;-71
2021/10/25 02:37:57;;;;;;;;;24.25;20.25;;;;;19.86;47.12;101084.47;5056620;28;52716;-71
2021/10/25 02:40:24;;;;;;;;;25.75;23.00;;;;;19.85;46.83;101079.22;5073481;28;45444;-71
2021/10/25 02:42:50;;;;;;;;;23.00;19.00;;;;;19.88;47.02;101080.00;5073646;28;45369;-72
2021/10/25 02:45:16;;;;;;;;;21.25;19.00;;;;;19.85;46.63;101069.47;5041466;28;45298;-71
2021/10/25 02:47:41;;;;;;;;;19.75;17.25;;;;;19.82;46.99;101064.28;5046683;28;45613;-72
2021/10/25 02:50:07;;;;;;;;;21.75;20.25;;;;;19.84;46.99;101067.75;5053279;28;45234;-71
2021/10/25 02:52:32;;;;;;;;;23.25;18.75;;;;;19.84;47.22;101067.75;5041238;28;45255;-71
2021/10/25 02:54:58;;;;;;;;;21.75;17.75;;;;;19.85;47.33;101064.19;5039106;28;60246;-70
2021/10/25 02:57:23;;;;;;;;;21.50;21.50;;;;;19.89;47.61;101070.28;5056658;28;45304;-71
2021/10/25 02:59:49;;;;;;;;;23.00;21.00;;;;;19.89;47.00;101059.69;5040935;28;47029;-71
2021/10/25 03:02:14;;;;;;;;;25.25;21.25;;;;;19.89;47.05;101063.19;5056592;28;45360;-71
2021/10/25 03:04:40;;;;;;;;;24.00;18.50;;;;;19.89;46.98;101057.91;5073038;28;49549;-71
2021/10/25 03:07:05;;;;;;;;;23.75;19.50;;;;;19.88;46.83;101063.22;5040283;28;58861;-71
2021/10/25 03:09:30;;;;;;;;;23.00;20.25;;;;;19.86;46.87;101057.13;5040206;28;58840;-71
2021/10/25 03:11:56;;;;;;;;;19.50;16.25;;;;;19.86;46.52;101054.47;5039146;28;55994;-71
2021/10/25 03:14:21;;;;;;;;;21.75;20.00;;;;;19.86;46.65;101057.13;5072982;28;52761;-71
2021/10/25 03:16:47;;;;;;;;;21.00;18.75;;;;;19.88;46.93;101057.94;5039123;28;58636;-71
2021/10/25 03:19:12;;;;;;;;;14.75;14.25;;;;;19.88;46.72;101063.22;5072738;28;45930;-71
2021/10/25 03:21:37;;;;;;;;;25.25;19.75;;;;;19.91;46.78;101069.34;5040924;28;45346;-71
2021/10/25 03:24:03;;;;;;;;;17.75;17.75;;;;;19.90;46.58;101056.16;5073208;28;45205;-71
2021/10/25 03:26:29;;;;;;;;;16.75;15.25;;;;;19.90;46.56;101059.66;5056221;28;45628;-71
2021/10/25 03:28:55;;;;;;;;;21.00;18.50;;;;;19.92;46.75;101068.44;5039044;28;48062;-71
2021/10/25 03:31:21;;;;;;;;;17.75;15.50;;;;;19.93;46.46;101066.66;5039438;28;45235;-72
2021/10/25 03:33:47;;;;;;;;;19.00;17.25;;;;;19.87;46.79;101054.41;5055695;28;45253;-71
2021/10/25 03:36:12;;;;;;;;;23.50;18.00;;;;;19.90;46.58;101069.41;5039388;28;45278;-71
2021/10/25 03:38:39;;;;;;;;;18.00;17.00;;;;;19.91;46.51;101068.47;5039181;28;45243;-71
2021/10/25 03:41:09;;;;;;;;;17.75;17.25;;;;;19.86;46.83;101055.34;5055778;28;45441;-71
2021/10/25 03:43:39;;;;;;;;;14.75;14.50;;;;;19.87;46.44;101058.84;5055628;28;45249;-71
2021/10/25 03:48:42;;;;;;;;;23.25;19.50;;;;;19.86;46.85;101057.97;5039883;28;46181;-70
2021/10/25 03:51:10;;;;;;;;;17.00;17.00;;;;;19.86;46.89;101057.13;5039858;28;45356;-70
2021/10/25 03:53:45;;;;;;;;;16.50;16.50;;;;;19.85;46.64;101053.59;5072764;28;45323;-72
2021/10/25 03:56:19;;;;;;;;;22.25;19.00;;;;;19.83;47.42;101052.75;5038771;28;45388;-70
2021/10/25 04:30:15;;;;;;;;;12.75;12.25;;;;;19.93;47.44;101058.72;5054955;28;45182;-71
2021/10/25 04:32:40;;;;;;;;;18.50;16.75;;;;;19.90;47.68;101056.16;5039807;28;45181;-71
2021/10/25 04:35:06;;;;;;;;;19.00;15.50;;;;;19.88;47.84;101050.00;5038453;28;45375;-70
2021/10/25 04:37:31;;;;;;;;;5.50;5.50;;;;;19.88;48.00;101053.50;5038407;28;46080;-71
2021/10/25 04:39:57;;;;;;;;;15.50;14.50;;;;;19.86;48.27;101047.38;5038871;28;63321;-71
2021/10/25 04:42:22;;;;;;;;;13.50;13.50;;;;;19.87;48.59;101046.47;5071626;28;55328;-71
2021/10/25 04:44:48;;;;;;;;;17.25;15.50;;;;;19.85;48.53;101052.72;5038156;28;45731;-71
2021/10/25 04:47:14;;;;;;;;;17.00;16.25;;;;;19.84;48.39;101056.28;5071834;28;45426;-71
2021/10/25 04:49:40;;;;;;;;;17.50;16.50;;;;;19.79;48.90;101042.28;5038082;28;45346;-70
2021/10/25 04:52:05;;;;;;;;;20.75;14.00;;;;;19.84;49.20;101051.00;5071750;28;45329;-70
2021/10/25 04:54:31;;;;;;;;;16.25;15.50;;;;;19.94;49.55;101045.41;5038430;28;46237;-69
2021/10/25 04:56:57;;;;;;;;;17.50;15.25;;;;;20.11;49.53;101049.44;5021425;28;45556;-68
2021/10/25 04:59:23;;;;;;;;;18.00;13.25;;;;;20.29;50.32;101055.13;5038096;28;46724;-69
2021/10/25 05:01:48;;;;;;;;;14.00;13.75;;;;;20.44;50.66;101047.72;5021469;28;45301;-69
2021/10/25 05:04:14;;;;;;;;;15.00;14.75;;;;;20.59;51.57;101053.50;5038040;28;45812;-70
2021/10/25 05:06:39;;;;;;;;;174.25;165.25;;;;;20.75;51.43;101045.97;5039107;28;45268;-71
2021/10/25 05:09:05;;;;;;;;;76.00;62.25;;;;;20.93;51.40;101041.06;5037794;28;47171;-70
2021/10/25 05:11:30;;;;;;;;;59.00;47.75;;;;;21.08;50.95;101043.28;5071965;28;45252;-69
2021/10/25 05:13:55;;;;;;;;;52.25;42.75;;;;;21.23;50.86;101044.59;5035201;28;49529;-70
2021/10/25 05:16:21;;;;;;;;;46.00;37.25;;;;;21.32;50.64;101039.91;5070278;28;57957;-70
2021/10/25 05:18:46;;;;;;;;;44.00;34.25;;;;;21.41;50.82;101041.44;5038728;28;59249;-69
2021/10/25 05:21:12;;;;;;;;;38.50;33.50;;;;;21.48;50.29;101042.13;5037605;28;45341;-71
2021/10/25 05:23:37;;;;;;;;;31.50;29.50;;;;;21.58;50.20;101046.22;5054781;28;45259;-70
2021/10/25 05:26:02;;;;;;;;;37.50;32.50;;;;;21.65;50.37;101045.13;5053771;28;58096;-81
2021/10/25 05:28:28;;;;;;;;;32.00;29.50;;;;;21.72;50.11;101044.00;5039067;28;45602;-78
2021/10/25 05:30:53;;;;;;;;;27.75;26.50;;;;;21.77;49.77;101039.41;5037927;28;56417;-79
2021/10/25 05:33:19;;;;;;;;;30.00;27.00;;;;;21.76;49.56;101021.72;5074785;28;45322;-82
2021/10/25 05:35:44;;;;;;;;;31.00;28.75;;;;;21.82;49.36;101013.56;5040602;28;45551;-80
2021/10/25 05:38:12;;;;;;;;;28.25;24.50;;;;;21.84;49.43;101017.03;5042224;28;45306;-78
2021/10/25 05:40:38;;;;;;;;;30.50;24.75;;;;;21.79;49.02;101000.34;5038049;28;45536;-75
2021/10/25 05:43:04;;;;;;;;;21.50;19.00;;;;;21.75;47.59;101001.38;5050419;28;45339;-75
2021/10/25 05:45:29;;;;;;;;;23.00;21.75;;;;;21.67;47.30;101019.38;5074497;28;45193;-74
2021/10/25 05:47:55;;;;;;;;;20.25;18.00;;;;;21.55;46.62;101014.47;5074433;28;47236;-74
2021/10/25 05:50:20;;;;;;;;;19.75;19.50;;;;;21.46;47.12;101028.88;5042045;28;45242;-77
2021/10/25 05:52:46;;;;;;;;;17.25;15.25;;;;;21.31;47.18;101016.94;5041709;28;45490;-83
2021/10/25 05:55:12;;;;;;;;;21.25;19.50;;;;;21.25;47.69;101014.44;5036877;28;45243;-78
2021/10/25 05:57:38;;;;;;;;;18.00;17.00;;;;;21.16;46.74;101012.06;5028943;28;46721;-80
2021/10/25 06:00:05;;;;;;;;;18.25;16.25;;;;;21.13;46.53;101017.47;5038922;28;45506;-76
2021/10/25 06:02:35;;;;;;;;;23.50;21.00;;;;;21.05;51.35;101019.50;5058301;28;45480;-81
2021/10/25 06:05:00;;;;;;;;;21.50;20.50;;;;;21.04;50.45;101018.63;5053928;28;45927;-74
2021/10/25 06:07:27;;;;;;;;;18.50;17.50;;;;;20.99;49.80;101015.22;5050603;28;47061;-73
2021/10/25 06:09:53;;;;;;;;;22.50;20.50;;;;;20.93;49.51;101014.53;5044178;28;45232;-74
2021/10/25 06:12:20;;;;;;;;;17.25;16.25;;;;;20.84;49.09;101000.59;5035384;28;46021;-74
2021/10/25 06:14:51;;;;;;;;;19.50;16.75;;;;;20.73;48.96;101004.50;5002081;28;45391;-74
2021/10/25 06:19:45;;;;;;;;;20.75;17.75;;;;;20.70;48.98;101017.84;5039530;28;45529;-76
2021/10/25 06:22:11;;;;;;;;;14.00;14.00;;;;;20.69;48.56;101022.28;5056061;28;45408;-75
2021/10/25 06:24:37;;;;;;;;;14.25;13.25;;;;;20.68;49.31;101025.00;5040928;28;45677;-75
2021/10/25 06:27:02;;;;;;;;;17.00;16.50;;;;;20.77;49.58;101030.91;5040368;28;45551;-74
2021/10/25 06:29:28;;;;;;;;;21.50;19.75;;;;;20.86;49.36;101030.63;5039799;28;45736;-75
2021/10/25 06:31:53;;;;;;;;;29.25;26.00;;;;;20.95;49.12;101029.50;5040348;28;45751;-76
2021/10/25 06:34:24;;;;;;;;;27.25;21.00;;;;;21.04;48.89;101023.06;5038774;28;45162;-73
2021/10/25 06:36:52;;;;;;;;;22.00;20.75;;;;;21.11;48.79;101025.50;5007452;28;47154;-74
2021/10/25 06:39:23;;;;;;;;;24.25;22.50;;;;;21.20;48.97;101031.41;5038869;28;45466;-72
2021/10/25 06:41:48;;;;;;;;;22.50;20.25;;;;;21.24;48.32;101039.25;5039567;28;45510;-71
2021/10/25 06:44:14;;;;;;;;;23.50;22.25;;;;;21.31;48.10;101048.81;5055599;28;45318;-72
2021/10/25 06:46:43;;;;;;;;;28.00;22.00;;;;;21.36;48.07;101051.31;5038537;28;45500;-75
2021/10/25 06:49:19;;;;;;;;;28.00;20.00;;;;;21.37;48.33;101039.75;5038243;28;45544;-72
2021/10/25 06:51:45;;;;;;;;;22.25;21.25;;;;;21.41;47.03;101041.44;5018550;28;45301;-76
2021/10/25 06:54:10;;;;;;;;;20.00;20.00;;;;;21.35;47.13;101045.13;5021727;28;45595;-76
2021/10/25 06:56:36;;;;;;;;;25.50;22.50;;;;;21.22;46.38;101049.06;5038265;28;45228;-76
2021/10/25 06:59:01;;;;;;;;;23.25;20.00;;;;;21.08;46.62;101060.06;5038825;28;45383;-76
2021/10/25 07:01:27;;;;;;;;;26.00;18.50;;;;;20.98;46.67;101057.72;5055450;28;45337;-76
2021/10/25 07:03:53;;;;;;;;;22.25;19.00;;;;;20.80;46.02;101049.38;5067692;28;45909;-76
2021/10/25 07:06:19;;;;;;;;;20.75;15.25;;;;;20.80;46.42;101065.28;5037955;28;47251;-75
2021/10/25 07:08:47;;;;;;;;;24.00;19.25;;;;;20.71;46.29;101064.69;5038375;28;45407;-76
2021/10/25 07:11:15;;;;;;;;;24.75;20.50;;;;;20.66;46.68;101059.47;5023789;28;45505;-75
2021/10/25 07:13:55;;;;;;;;;;;;;;;;;;;;;
2021/10/25 07:16:31;;;;;;;;;31.25;24.00;;;;;20.56;47.30;101069.47;5045947;28;75020;-76
2021/10/25 07:19:12;;;;;;;;;31.00;23.75;;;;;20.55;47.21;101070.38;5037102;28;45485;-77
2021/10/25 08:00:20;;;;;;;;;59.25;35.00;;;;;20.38;51.58;101091.13;5052118;28;45793;-77
2021/10/25 08:10:42;;;;;;;;;66.00;42.00;;;;;20.68;52.34;101100.13;5034744;28;45359;-74
2021/10/25 08:13:13;;;;;;;;;67.75;43.00;;;;;20.73;51.93;101094.69;5021282;28;45515;-76
2021/10/25 08:15:44;;;;;;;;;60.50;41.25;;;;;20.73;51.30;101100.84;5038036;28;46509;-76
2021/10/25 08:21:21;;;;;;;;;45.25;30.25;;;;;20.85;50.28;101105.84;5038229;28;46042;-75
2021/10/25 08:23:50;;;;;;;;;32.00;26.50;;;;;20.62;49.73;101057.84;5068835;28;45551;-75
2021/10/25 08:26:15;;;;;;;;;29.00;24.50;;;;;20.78;49.07;101072.44;5005417;28;45363;-78
2021/10/25 08:28:41;;;;;;;;;28.25;19.75;;;;;20.88;48.45;101097.78;5022054;28;45349;-79
2021/10/25 08:31:18;;;;;;;;;25.50;21.50;;;;;20.86;48.21;101101.41;5072831;28;46091;-78
2021/10/25 08:40:21;;;;;;;;;19.50;17.00;;;;;20.66;47.89;101077.19;5001213;28;45511;-76
2021/10/25 08:42:28;;;;;;;;;18.00;17.75;;;;;20.75;47.63;101088.41;5012334;28;45536;-76
2021/10/25 08:48:07;;;;;;;;;16.50;12.50;;;;;20.79;47.67;101089.22;5065924;27;45455;-76
2021/10/25 08:50:36;;;;;;;;;19.75;15.75;;;;;20.81;47.25;101090.03;5037147;28;45265;-77
2021/10/25 08:53:05;;;;;;;;;17.25;16.75;;;;;20.82;46.58;101089.13;5038175;28;46171;-77
2021/10/25 08:56:22;;;;;;;;;17.50;15.50;;;;;20.84;46.79;101101.41;5036414;28;45368;-78
2021/10/25 08:58:54;;;;;;;;;19.00;15.00;;;;;20.75;46.86;101075.16;5048432;28;45483;-77
2021/10/25 09:01:32;;;;;;;;;13.75;12.50;;;;;20.88;46.63;101094.25;5037350;28;45208;-77
2021/10/25 09:07:47;;;;;;;;;16.00;14.75;;;;;20.74;46.07;101068.09;4978222;28;45354;-76
2021/10/25 09:10:26;;;;;;;;;16.25;14.75;;;;;20.74;46.49;101057.50;5036565;28;45510;-76
2021/10/25 09:16:19;;;;;;;;;17.50;15.75;;;;;20.73;46.06;101050.44;4928670;28;45584;-77
2021/10/25 09:18:57;;;;;;;;;16.50;13.50;;;;;20.73;46.45;101023.94;5020532;28;45583;-77
2021/10/25 09:21:32;;;;;;;;;16.50;13.75;;;;;20.86;46.10;101045.69;5021955;28;45498;-76
2021/10/25 09:24:00;;;;;;;;;20.00;14.00;;;;;20.77;46.41;101017.63;5005639;28;45563;-76
2021/10/25 09:27:10;;;;;;;;;15.00;14.25;;;;;20.88;46.40;101039.41;5038947;28;45549;-78
2021/10/25 09:33:32;;;;;;;;;;;;;;;;;;;;;
2021/10/25 09:36:02;;;;;;;;;21.25;16.00;;;;;21.03;46.01;101048.72;5015188;28;74314;-76
2021/10/25 09:38:59;;;;;;;;;17.25;13.75;;;;;21.20;45.98;101061.50;5021081;28;46810;-76
2021/10/25 09:49:31;;;;;;;;;14.00;12.25;;;;;21.31;45.93;101072.69;5019073;28;45399;-76
2021/10/25 09:52:12;;;;;;;;;20.25;15.25;;;;;21.31;45.71;101067.41;5023903;28;45699;-77
2021/10/25 10:05:36;;;;;;;;;22.00;18.75;;;;;21.42;45.85;101077.69;4833497;29;45527;-77
2021/10/25 10:08:09;;;;;;;;;20.75;18.75;;;;;21.29;46.27;101078.97;4830060;29;45343;-78
2021/10/25 10:11:07;;;;;;;;;21.50;16.25;;;;;20.97;45.99;101042.72;4891377;28;45558;-77
2021/10/25 10:14:34;;;;;;;;;;;;;;;;;;;;;
2021/10/25 10:31:36;;;;;;;;;16.25;13.75;;;;;20.89;47.65;101077.44;4882303;29;45523;-77
2021/10/25 10:34:57;;;;;;;;;20.25;17.00;;;;;20.72;47.79;101058.47;4863941;29;45497;-77
2021/10/25 10:41:39;;;;;;;;;18.75;16.00;;;;;20.99;48.06;101097.47;4855304;29;45578;-77
2021/10/25 10:45:03;;;;;;;;;18.00;15.00;;;;;20.96;48.21;101107.31;4848304;29;45463;-77
2021/10/25 10:48:24;;;;;;;;;;;;;;;;;;;;;
2021/10/25 10:51:15;;;;;;;;;12.75;12.75;;;;;20.97;48.44;101104.63;4933825;28;45368;-77
2021/10/25 10:53:58;;;;;;;;;17.25;12.00;;;;;20.64;48.10;101056.00;4934986;28;45726;-76
2021/10/25 11:10:57;;;;;;;;;16.00;12.50;;;;;20.65;49.02;101070.13;4881492;29;45511;-78
2021/10/25 11:14:07;;;;;;;;;16.25;12.25;;;;;20.74;49.02;101088.44;4891940;28;45483;-78
2021/10/25 11:21:27;;;;;;;;;;;;;;;;;;;;;
2021/10/25 11:24:22;;;;;;;;;6.75;5.75;;;;;20.72;48.97;101111.50;4857902;29;45275;-79
2021/10/25 11:27:30;;;;;;;;;;;;;;;;;;;;;
2021/10/25 11:30:49;;;;;;;;;;;;;;;;;;;;;
2021/10/25 11:33:20;;;;;;;;;8.75;4.75;;;;;20.60;49.21;101065.84;4995486;28;75290;-78
2021/10/25 11:35:48;;;;;;;;;14.00;12.50;;;;;20.69;49.15;101075.34;4968036;28;45345;-79
2021/10/25 11:38:14;;;;;;;;;12.00;9.25;;;;;20.80;49.48;101093.59;4983469;28;44824;-79
2021/10/25 11:40:45;;;;;;;;;17.75;14.50;;;;;20.80;49.11;101085.66;4978619;28;45381;-79
2021/10/25 11:43:11;;;;;;;;;13.50;9.00;;;;;20.77;48.86;101076.00;4961450;28;46245;-78
2021/10/25 11:45:36;;;;;;;;;11.00;7.00;;;;;20.70;49.38;101074.41;4966570;28;45601;-79
2021/10/25 11:48:02;;;;;;;;;17.00;12.25;;;;;20.84;49.45;101088.16;4963169;28;45344;-80
2021/10/25 11:50:30;;;;;;;;;13.25;10.75;;;;;20.83;49.53;101086.41;4981074;28;45483;-78
2021/10/25 11:52:59;;;;;;;;;16.50;12.50;;;;;20.86;49.32;101091.66;4956209;28;46299;-78
2021/10/25 11:55:27;;;;;;;;;12.00;11.00;;;;;20.84;49.32;101081.97;4975180;28;45719;-78
2021/10/25 11:57:55;;;;;;;;;13.25;9.25;;;;;20.85;49.22;101081.97;4966328;28;45347;-76
2021/10/25 12:00:22;;;;;;;;;16.50;10.00;;;;;20.89;49.23;101088.03;4950210;28;45528;-73
2021/10/25 12:02:47;;;;;;;;;19.50;14.00;;;;;20.96;49.79;101089.63;4979471;28;48042;-74
2021/10/25 12:05:24;;;;;;;;;13.75;12.25;;;;;21.01;49.48;101081.50;4949762;28;45238;-73
2021/10/25 12:07:54;;;;;;;;;16.00;11.50;;;;;21.09;49.56;101080.38;4979325;28;45207;-75
2021/10/25 12:10:28;;;;;;;;;13.75;10.75;;;;;21.15;49.27;101082.88;4972488;28;45465;-74
2021/10/25 12:13:03;;;;;;;;;9.00;9.00;;;;;21.17;48.90;101081.03;4955136;28;45500;-74
2021/10/25 12:15:34;;;;;;;;;15.75;11.00;;;;;21.26;48.39;101079.03;4980911;28;45334;-74
2021/10/25 12:18:06;;;;;;;;;9.75;9.75;;;;;21.32;48.19;101079.75;4982189;28;45257;-74
2021/10/25 12:20:39;;;;;;;;;11.25;10.25;;;;;21.30;48.32;101070.97;4994014;28;45258;-74
2021/10/25 12:23:08;;;;;;;;;11.25;9.00;;;;;21.35;48.21;101073.47;4966865;28;48195;-74
2021/10/25 12:25:34;;;;;;;;;12.75;10.75;;;;;21.35;48.09;101073.47;4998302;28;45308;-74
2021/10/25 12:28:07;;;;;;;;;13.00;10.50;;;;;21.38;48.02;101068.09;5004397;28;45391;-74
2021/10/25 12:30:36;;;;;;;;;19.25;11.00;;;;;21.37;48.12;101068.97;5001571;28;45467;-74
2021/10/25 12:33:01;;;;;;;;;30.50;17.00;;;;;21.28;48.40;101048.88;5001060;28;46148;-74
2021/10/25 12:35:33;;;;;;;;;26.25;18.50;;;;;21.36;48.57;101048.66;5000336;28;45684;-75
2021/10/25 12:38:09;;;;;;;;;21.00;12.00;;;;;21.42;48.46;101043.16;5019492;28;45244;-75
2021/10/25 12:40:41;;;;;;;;;12.25;11.00;;;;;21.45;48.17;101040.41;4988517;28;45466;-75
2021/10/25 12:43:07;;;;;;;;;14.75;11.00;;;;;21.31;48.33;101027.56;5022882;28;45417;-76
2021/10/25 12:45:39;;;;;;;;;16.50;14.00;;;;;21.21;48.23;101020.78;4972607;28;45273;-75
2021/10/25 12:48:05;;;;;;;;;25.25;14.00;;;;;21.29;48.37;101045.34;4990534;28;45445;-78
2021/10/25 12:50:32;;;;;;;;;16.75;12.00;;;;;21.28;48.43;101051.53;4988859;28;45601;-77
2021/10/25 12:52:57;;;;;;;;;15.50;11.50;;;;;21.23;48.84;101047.28;5023040;28;46248;-77
2021/10/25 12:55:26;;;;;;;;;13.00;10.00;;;;;21.21;48.53;101049.97;4995412;28;45312;-76
2021/10/25 12:57:53;;;;;;;;;12.25;8.75;;;;;21.18;49.00;101052.69;5009358;28;45562;-76
2021/10/25 13:00:22;;;;;;;;;13.75;10.00;;;;;21.18;49.14;101052.69;5023404;28;45421;-77
2021/10/25 13:02:49;;;;;;;;;13.75;9.75;;;;;21.13;48.91;101044.88;4988606;28;47413;-76
2021/10/25 13:05:16;;;;;;;;;11.50;11.00;;;;;21.15;49.17;101053.66;4989485;28;45227;-76
2021/10/25 13:07:55;;;;;;;;;14.75;11.50;;;;;21.17;49.16;101045.66;5023007;28;45454;-77
2021/10/25 13:10:24;;;;;;;;;15.00;11.75;;;;;21.10;49.29;101038.78;5006084;28;45408;-76
2021/10/25 13:12:50;;;;;;;;;10.75;9.25;;;;;21.17;49.05;101049.19;5004900;28;45724;-77
2021/10/25 13:15:18;;;;;;;;;15.25;11.00;;;;;21.15;49.04;101043.06;5005326;28;45258;-77
2021/10/25 13:17:43;;;;;;;;;11.75;9.50;;;;;21.14;49.14;101041.31;5004723;28;45528;-76
2021/10/25 13:20:10;;;;;;;;;11.50;9.00;;;;;21.00;48.88;101016.09;4968862;28;45476;-78
2021/10/25 13:22:35;;;;;;;;;11.00;9.75;;;;;20.98;49.37;101025.88;5004575;28;45485;-77
2021/10/25 13:25:04;;;;;;;;;14.00;10.00;;;;;20.87;49.54;101032.38;5004793;28;45384;-78
2021/10/25 13:27:30;;;;;;;;;10.00;8.00;;;;;20.73;49.40;101017.75;5027115;28;45306;-78
2021/10/25 13:29:55;;;;;;;;;16.50;9.75;;;;;20.73;49.84;101023.94;5010871;28;45570;-85
2021/10/25 13:32:21;;;;;;;;;13.25;10.00;;;;;20.69;49.74;101019.63;4992104;28;45897;-86
2021/10/25 13:34:49;;;;;;;;;10.00;9.00;;;;;20.72;50.30;101027.50;4988361;28;45694;-85
2021/10/25 13:37:15;;;;;;;;;10.50;10.25;;;;;20.86;49.97;101041.25;4968043;28;45426;-82
2021/10/25 13:39:40;;;;;;;;;8.75;8.75;;;;;20.77;50.10;101015.00;4991919;28;45526;-78
2021/10/25 13:42:06;;;;;;;;;12.75;10.00;;;;;20.85;49.60;101033.34;4995299;28;47163;-78
2021/10/25 13:44:57;;;;;;;;;11.00;9.00;;;;;20.74;49.33;101025.66;4962233;28;45309;-80
2021/10/25 13:47:26;;;;;;;;;7.75;7.75;;;;;20.65;49.17;101019.75;4992736;28;45338;-79
2021/10/25 13:49:56;;;;;;;;;13.50;11.75;;;;;20.68;49.44;101025.84;4992954;28;45420;-77
2021/10/25 13:52:21;;;;;;;;;9.50;9.50;;;;;20.52;49.36;101009.50;4987363;28;46257;-79
2021/10/25 13:54:47;;;;;;;;;13.25;13.25;;;;;20.48;50.00;101013.13;4995908;28;45413;-80
2021/10/25 13:57:15;;;;;;;;;11.25;11.25;;;;;20.49;49.81;101014.88;4967872;28;45448;-79
2021/10/25 13:59:41;;;;;;;;;9.75;7.25;;;;;20.48;49.71;101020.22;5019500;28;45369;-80
2021/10/25 14:02:12;;;;;;;;;11.00;10.75;;;;;20.41;49.89;101008.00;5004330;28;45885;-79
2021/10/25 14:04:45;;;;;;;;;9.25;8.00;;;;;20.45;50.28;101023.81;5021775;28;45430;-80
2021/10/25 14:07:15;;;;;;;;;11.00;9.00;;;;;20.48;50.10;101025.50;5022343;28;45433;-79
2021/10/25 14:09:49;;;;;;;;;11.25;10.00;;;;;20.43;50.15;101025.66;5003787;28;45894;-80
2021/10/25 14:12:19;;;;;;;;;8.75;8.25;;;;;20.38;50.24;101011.59;5021835;28;46079;-79